createdAt,value
2023-04-10T00:01:55.924Z,8.97
2023-04-10T00:04:24.496Z,8.60
2023-04-10T00:06:52.897Z,9.27
2023-04-10T00:09:22.723Z,9.50
2023-04-10T00:11:51.117Z,9.97
2023-04-10T00:14:23.148Z,9.00
2023-04-10T00:16:51.721Z,9.17
2023-04-10T00:19:20.144Z,9.17
2023-04-10T00:21:48.616Z,8.90
2023-04-10T00:24:17.001Z,8.60
2023-04-10T00:26:46.743Z,9.33
2023-04-10T00:29:15.433Z,9.63
2023-04-10T00:31:44.252Z,9.10
2023-04-10T00:34:13.994Z,8.97
2023-04-10T00:36:42.527Z,9.23
2023-04-10T00:39:11.061Z,9.10
2023-04-10T00:41:39.562Z,9.90
2023-04-10T00:44:09.638Z,9.33
2023-04-10T00:46:38.680Z,9.97
2023-04-10T00:49:07.416Z,9.27
2023-04-10T00:51:35.942Z,9.30
2023-04-10T00:54:04.725Z,8.80
2023-04-10T00:56:34.467Z,9.17
2023-04-10T00:59:05.780Z,9.27
2023-04-10T01:01:36.936Z,8.87
2023-04-10T01:04:06.010Z,9.63
2023-04-10T01:06:37.810Z,9.80
2023-04-10T01:09:07.297Z,9.80
2023-04-10T01:11:39.505Z,9.30
2023-04-10T01:14:09.419Z,9.37
2023-04-10T01:16:41.563Z,8.97
2023-04-10T01:19:11.981Z,9.73
2023-04-10T01:21:40.694Z,9.23
2023-04-10T01:24:24.085Z,9.20
2023-04-10T01:26:55.963Z,9.30
2023-04-10T01:29:26.973Z,10.13
2023-04-10T01:31:56.833Z,9.80
2023-04-10T01:34:27.292Z,9.83
2023-04-10T01:36:57.058Z,10.07
2023-04-10T01:39:25.498Z,10.10
2023-04-10T01:41:54.134Z,9.43
2023-04-10T01:44:23.428Z,9.97
2023-04-10T01:46:53.333Z,10.00
2023-04-10T01:49:21.650Z,9.93
2023-04-10T01:51:50.110Z,9.90
2023-04-10T01:54:18.530Z,10.90
2023-04-10T01:56:46.983Z,10.50
2023-04-10T01:59:15.496Z,10.87
2023-04-10T02:01:44.176Z,10.43
2023-04-10T02:04:13.994Z,10.80
2023-04-10T02:06:43.427Z,10.93
2023-04-10T02:09:12.972Z,10.40
2023-04-10T02:11:43.806Z,11.30
2023-04-10T02:14:13.330Z,11.23
2023-04-10T02:16:41.823Z,11.90
2023-04-10T02:19:10.231Z,11.17
2023-04-10T02:21:40.072Z,11.27
2023-04-10T02:24:08.508Z,11.37
2023-04-10T02:26:46.254Z,11.77
2023-04-10T02:29:14.684Z,11.30
2023-04-10T02:31:43.385Z,11.27
2023-04-10T02:34:11.902Z,11.17
2023-04-10T02:36:42.084Z,11.13
2023-04-10T02:39:10.481Z,11.30
2023-04-10T02:41:38.847Z,11.73
2023-04-10T02:44:07.485Z,11.27
2023-04-10T02:46:35.878Z,11.10
2023-04-10T02:49:04.377Z,11.87
2023-04-10T02:51:36.644Z,11.07
2023-04-10T02:54:06.462Z,11.83
2023-04-10T02:56:35.822Z,11.63
2023-04-10T02:59:04.606Z,11.40
2023-04-10T03:01:33.362Z,11.67
2023-04-10T03:04:03.897Z,11.30
2023-04-10T03:06:32.399Z,11.07
2023-04-10T03:09:00.806Z,11.27
2023-04-10T03:11:30.678Z,11.00
2023-04-10T03:13:59.471Z,11.23
2023-04-10T03:16:27.902Z,11.30
2023-04-10T03:18:56.300Z,11.83
2023-04-10T03:21:24.742Z,11.10
2023-04-10T03:23:53.238Z,10.90
2023-04-10T03:26:24.035Z,11.40
2023-04-10T03:28:53.901Z,10.50
2023-04-10T03:31:22.339Z,10.63
2023-04-10T03:33:51.062Z,10.13
2023-04-10T03:36:19.464Z,10.27
2023-04-10T03:38:47.956Z,10.10
2023-04-10T03:41:16.406Z,9.90
2023-04-10T03:43:44.787Z,10.03
2023-04-10T03:46:14.547Z,9.77
2023-04-10T03:48:43.057Z,9.43
2023-04-10T03:51:11.420Z,9.23
2023-04-10T03:53:39.793Z,9.23
2023-04-10T03:56:08.699Z,9.33
2023-04-10T03:58:37.132Z,9.20
2023-04-10T04:01:05.713Z,9.10
2023-04-10T04:03:35.531Z,9.00
2023-04-10T04:06:04.148Z,9.13
2023-04-10T04:08:32.681Z,9.40
2023-04-10T04:11:01.169Z,9.00
2023-04-10T04:13:29.567Z,8.67
2023-04-10T04:15:57.912Z,8.23
2023-04-10T04:18:26.273Z,8.67
2023-04-10T04:20:56.035Z,8.70
2023-04-10T04:23:24.408Z,8.47
2023-04-10T04:25:54.399Z,8.63
2023-04-10T04:28:22.826Z,8.60
2023-04-10T04:30:51.193Z,8.30
2023-04-10T04:33:19.705Z,8.60
2023-04-10T04:35:48.122Z,7.77
2023-04-10T04:38:20.279Z,8.23
2023-04-10T04:40:48.772Z,8.00
2023-04-10T04:43:18.453Z,8.10
2023-04-10T04:45:46.897Z,7.97
2023-04-10T04:48:15.381Z,8.10
2023-04-10T04:50:43.751Z,8.07
2023-04-10T04:53:12.132Z,7.83
2023-04-10T04:55:41.868Z,8.27
2023-04-10T04:58:10.283Z,7.80
2023-04-10T05:00:38.650Z,8.17
2023-04-10T05:03:07.298Z,8.27
2023-04-10T05:05:35.922Z,8.40
2023-04-10T05:08:07.378Z,7.90
2023-04-10T05:10:35.891Z,8.63
2023-04-10T05:13:05.947Z,7.73
2023-04-10T05:15:34.465Z,8.07
2023-04-10T05:18:02.944Z,7.63
2023-04-10T05:20:31.431Z,7.43
2023-04-10T05:23:00.008Z,7.50
2023-04-10T05:25:28.357Z,7.60
2023-04-10T05:27:56.988Z,7.50
2023-04-10T05:30:26.828Z,7.67
2023-04-10T05:32:55.371Z,7.43
2023-04-10T05:35:23.766Z,7.17
2023-04-10T05:37:52.133Z,7.47
2023-04-10T05:40:20.589Z,7.60
2023-04-10T05:42:49.165Z,7.97
2023-04-10T05:45:18.411Z,7.60
2023-04-10T05:47:48.336Z,7.83
2023-04-10T05:50:16.787Z,7.67
2023-04-10T05:52:46.658Z,7.13
2023-04-10T05:55:15.061Z,6.93
2023-04-10T05:57:43.443Z,7.30
2023-04-10T06:00:12.842Z,7.20
2023-04-10T06:02:41.667Z,7.20
2023-04-10T06:05:11.814Z,7.10
2023-04-10T06:07:40.239Z,7.20
2023-04-10T06:10:09.536Z,7.23
2023-04-10T06:12:38.014Z,7.23
2023-04-10T06:15:06.660Z,7.33
2023-04-10T06:17:35.152Z,7.30
2023-04-10T06:20:04.737Z,7.20
2023-04-10T06:22:34.449Z,6.97
2023-04-10T06:25:02.887Z,7.20
2023-04-10T06:27:31.256Z,7.70
2023-04-10T06:29:59.651Z,7.20
2023-04-10T06:32:29.273Z,6.80
2023-04-10T06:34:57.656Z,6.70
2023-04-10T06:37:31.326Z,6.90
2023-04-10T06:40:05.506Z,6.47
2023-04-10T06:42:34.034Z,6.30
2023-04-10T06:45:02.613Z,6.93
2023-04-10T06:47:31.694Z,7.10
2023-04-10T06:50:00.209Z,7.37
2023-04-10T06:52:29.808Z,7.17
2023-04-10T06:54:58.178Z,7.20
2023-04-10T06:57:28.809Z,7.43
2023-04-10T06:59:57.362Z,6.47
2023-04-10T07:02:25.770Z,6.13
2023-04-10T07:04:54.367Z,6.17
2023-04-10T07:07:25.634Z,6.13
2023-04-10T07:09:54.080Z,7.00
2023-04-10T07:12:22.893Z,6.57
2023-04-10T07:14:52.872Z,7.20
2023-04-10T07:17:21.379Z,6.23
2023-04-10T07:19:49.947Z,6.57
2023-04-10T07:22:18.299Z,6.80
2023-04-10T07:24:48.277Z,6.40
2023-04-10T07:27:17.184Z,6.60
2023-04-10T07:29:45.700Z,6.70
2023-04-10T07:32:15.704Z,6.83
2023-04-10T07:34:44.734Z,6.90
2023-04-10T07:37:13.070Z,7.90
2023-04-10T07:39:41.459Z,6.87
2023-04-10T07:42:09.999Z,6.90
2023-04-10T07:44:38.541Z,7.33
2023-04-10T07:47:07.009Z,7.00
2023-04-10T07:49:36.800Z,7.53
2023-04-10T07:52:05.298Z,7.37
2023-04-10T07:54:34.444Z,7.17
2023-04-10T07:57:02.959Z,6.93
2023-04-10T07:59:31.321Z,7.50
2023-04-10T08:01:59.755Z,7.30
2023-04-10T08:04:28.539Z,7.30
2023-04-10T08:06:58.331Z,7.60
2023-04-10T08:09:27.163Z,7.10
2023-04-10T08:11:55.524Z,7.60
2023-04-10T08:14:23.914Z,6.93
2023-04-10T08:16:52.509Z,7.20
2023-04-10T08:19:20.829Z,7.27
2023-04-10T08:21:49.185Z,7.07
2023-04-10T08:24:20.256Z,7.20
2023-04-10T08:26:48.615Z,7.57
2023-04-10T08:29:17.024Z,7.80
2023-04-10T08:31:45.453Z,7.13
2023-04-10T08:34:13.828Z,7.23
2023-04-10T08:36:42.217Z,7.53
2023-04-10T08:39:10.524Z,6.97
2023-04-10T08:41:40.318Z,6.57
2023-04-10T08:44:08.690Z,7.17
2023-04-10T08:46:38.511Z,7.57
2023-04-10T08:49:06.937Z,7.27
2023-04-10T08:51:38.525Z,7.90
2023-04-10T08:54:08.121Z,7.23
2023-04-10T08:56:37.268Z,7.23
2023-04-10T08:59:07.192Z,7.43
2023-04-10T09:01:36.441Z,7.10
2023-04-10T09:04:05.008Z,7.13
2023-04-10T09:06:33.516Z,7.87
2023-04-10T09:11:55.284Z,6.77
2023-04-10T09:14:25.617Z,7.13
2023-04-10T09:16:54.545Z,7.13
2023-04-10T09:19:31.687Z,7.60
2023-04-10T09:22:00.351Z,6.60
2023-04-10T09:24:28.692Z,7.53
2023-04-10T09:26:57.058Z,7.37
2023-04-10T09:29:26.843Z,6.97
2023-04-10T09:31:55.201Z,6.87
2023-04-10T09:34:24.554Z,6.97
2023-04-10T09:36:55.368Z,7.33
2023-04-10T09:39:24.013Z,7.20
2023-04-10T09:41:53.115Z,7.07
2023-04-10T09:44:30.123Z,6.63
2023-04-10T09:46:59.973Z,6.40
2023-04-10T09:49:28.489Z,6.93
2023-04-10T09:51:56.859Z,6.80
2023-04-10T09:54:37.438Z,6.83
2023-04-10T09:57:06.214Z,6.93
2023-04-10T09:59:34.732Z,6.67
2023-04-10T10:02:04.769Z,6.83
2023-04-10T10:04:33.214Z,6.87
2023-04-10T10:07:01.653Z,6.37
2023-04-10T10:09:30.039Z,7.20
2023-04-10T10:11:58.783Z,6.90
2023-04-10T10:14:27.248Z,7.20
2023-04-10T10:16:55.598Z,6.23
2023-04-10T10:19:26.395Z,6.60
2023-04-10T10:21:54.802Z,7.13
2023-04-10T10:24:23.222Z,6.43
2023-04-10T10:26:51.582Z,6.37
2023-04-10T10:29:19.956Z,6.77
2023-04-10T10:31:48.454Z,6.67
2023-04-10T10:34:17.723Z,6.50
2023-04-10T10:36:47.465Z,6.43
2023-04-10T10:39:22.959Z,6.80
2023-04-10T10:41:52.054Z,6.23
2023-04-10T10:44:22.652Z,6.33
2023-04-10T10:46:51.423Z,6.13
2023-04-10T10:49:19.819Z,6.47
2023-04-10T10:51:49.943Z,6.33
2023-04-10T10:54:31.241Z,5.57
2023-04-10T10:56:59.839Z,6.23
2023-04-10T10:59:49.107Z,6.37
2023-04-10T11:02:17.707Z,6.40
2023-04-10T11:04:46.363Z,6.37
2023-04-10T11:07:16.047Z,5.53
2023-04-10T11:09:52.052Z,5.67
2023-04-10T11:12:21.609Z,5.73
2023-04-10T11:14:58.328Z,6.03
2023-04-10T11:17:45.562Z,5.73
2023-04-10T11:20:13.958Z,5.27
2023-04-10T11:22:57.161Z,6.03
2023-04-10T11:25:27.302Z,5.80
2023-04-10T11:27:55.721Z,5.97
2023-04-10T11:30:27.422Z,6.30
2023-04-10T11:32:56.093Z,5.87
2023-04-10T11:35:24.602Z,6.47
2023-04-10T11:37:53.132Z,6.03
2023-04-10T11:40:21.548Z,6.10
2023-04-10T11:42:51.251Z,5.67
2023-04-10T11:45:26.771Z,5.83
2023-04-10T11:47:55.192Z,6.10
2023-04-10T11:50:23.671Z,5.70
2023-04-10T11:52:53.435Z,5.77
2023-04-10T11:55:23.034Z,6.30
2023-04-10T11:57:52.854Z,5.83
2023-04-10T12:00:25.386Z,5.77
2023-04-10T12:02:54.045Z,5.70
2023-04-10T12:05:22.730Z,5.57
2023-04-10T12:07:51.628Z,6.37
2023-04-10T12:10:21.487Z,5.67
2023-04-10T12:12:49.861Z,6.33
2023-04-10T12:15:29.321Z,6.20
2023-04-10T12:17:57.870Z,6.27
2023-04-10T12:20:28.695Z,6.03
2023-04-10T12:23:01.400Z,5.83
2023-04-10T12:25:29.871Z,6.67
2023-04-10T12:27:58.320Z,6.87
2023-04-10T12:30:26.665Z,6.00
2023-04-10T12:32:56.976Z,7.47
2023-04-10T12:35:39.573Z,7.03
2023-04-10T12:38:07.992Z,6.83
2023-04-10T12:40:40.597Z,7.87
2023-04-10T12:43:09.190Z,6.97
2023-04-10T12:45:43.881Z,7.97
2023-04-10T12:48:13.792Z,7.47
2023-04-10T12:50:49.070Z,8.17
2023-04-10T12:53:17.568Z,7.57
2023-04-10T12:55:58.289Z,7.97
2023-04-10T12:58:28.280Z,6.80
2023-04-10T13:00:57.446Z,7.87
2023-04-10T13:03:32.773Z,7.77
2023-04-10T13:06:01.457Z,8.63
2023-04-10T13:08:32.375Z,7.83
2023-04-10T13:11:06.339Z,8.17
2023-04-10T13:13:34.825Z,8.37
2023-04-10T13:16:05.848Z,7.90
2023-04-10T13:18:35.895Z,8.17
2023-04-10T13:21:04.335Z,7.97
2023-04-10T13:23:32.735Z,8.70
2023-04-10T13:26:03.989Z,7.93
2023-04-10T13:28:35.305Z,8.00
2023-04-10T13:31:03.762Z,8.33
2023-04-10T13:33:32.276Z,7.93
2023-04-10T13:36:02.234Z,7.93
2023-04-10T13:38:30.741Z,9.30
2023-04-10T13:40:59.381Z,8.73
2023-04-10T13:43:27.771Z,8.73
2023-04-10T13:45:56.214Z,8.20
2023-04-10T13:48:37.418Z,9.13
2023-04-10T13:51:10.054Z,8.43
2023-04-10T13:53:38.553Z,7.97
2023-04-10T13:56:07.575Z,7.57
2023-04-10T13:58:37.188Z,7.93
2023-04-10T14:01:06.553Z,6.90
2023-04-10T14:03:35.314Z,7.50
2023-04-10T14:06:03.753Z,7.10
2023-04-10T14:08:33.542Z,7.93
2023-04-10T14:11:01.997Z,7.60
2023-04-10T14:13:30.487Z,6.47
2023-04-10T14:15:59.012Z,7.50
2023-04-10T14:18:27.510Z,7.53
2023-04-10T14:20:55.839Z,7.60
2023-04-10T14:23:24.288Z,7.17
2023-04-10T14:25:54.205Z,7.97
2023-04-10T14:28:22.657Z,7.50
2023-04-10T14:30:51.425Z,8.83
2023-04-10T14:33:20.249Z,8.03
2023-04-10T14:35:48.957Z,8.40
2023-04-10T14:38:17.561Z,7.90
2023-04-10T14:40:50.010Z,8.23
2023-04-10T14:43:19.927Z,8.50
2023-04-10T14:45:48.370Z,8.13
2023-04-10T14:48:19.831Z,8.03
2023-04-10T14:50:49.309Z,8.80
2023-04-10T14:53:17.847Z,8.47
2023-04-10T14:55:46.290Z,10.03
2023-04-10T14:58:14.737Z,11.03
2023-04-10T15:00:44.760Z,9.93
2023-04-10T15:03:13.249Z,10.43
2023-04-10T15:05:41.758Z,11.43
2023-04-10T15:08:19.446Z,11.67
2023-04-10T15:10:50.364Z,11.33
2023-04-10T15:13:18.937Z,11.60
2023-04-10T15:15:49.448Z,11.10
2023-04-10T15:18:17.910Z,12.73
2023-04-10T15:20:46.584Z,12.97
2023-04-10T15:23:15.122Z,12.50
2023-04-10T15:25:43.738Z,11.70
2023-04-10T15:28:12.176Z,10.17
2023-04-10T15:30:40.727Z,11.93
2023-04-10T15:33:10.587Z,11.23
2023-04-10T15:35:39.050Z,10.63
2023-04-10T15:38:07.568Z,11.13
2023-04-10T15:40:38.667Z,10.37
2023-04-10T15:43:07.139Z,10.53
2023-04-10T15:45:36.839Z,11.43
2023-04-10T15:48:05.435Z,10.93
2023-04-10T15:50:35.547Z,10.03
2023-04-10T15:53:03.989Z,10.33
2023-04-10T15:55:32.475Z,10.03
2023-04-10T15:58:02.567Z,9.37
2023-04-10T16:00:31.159Z,9.47
2023-04-10T16:02:59.632Z,8.40
2023-04-10T16:05:28.256Z,9.20
2023-04-10T16:07:58.242Z,7.70
2023-04-10T16:10:26.763Z,8.03
2023-04-10T16:12:56.386Z,7.00
2023-04-10T16:15:24.814Z,7.13
2023-04-10T16:17:53.283Z,7.03
2023-04-10T16:20:21.769Z,7.07
2023-04-10T16:22:50.275Z,7.80
2023-04-10T16:25:21.659Z,7.60
2023-04-10T16:27:51.419Z,7.43
2023-04-10T16:30:19.732Z,8.63
2023-04-10T16:32:48.127Z,7.60
2023-04-10T16:35:18.064Z,8.40
2023-04-10T16:37:46.638Z,8.70
2023-04-10T16:40:16.176Z,8.40
2023-04-10T16:42:45.926Z,8.87
2023-04-10T16:45:14.298Z,8.23
2023-04-10T16:47:44.627Z,7.53
2023-04-10T16:50:13.431Z,8.40
2023-04-10T16:52:41.826Z,7.60
2023-04-10T16:55:10.609Z,8.23
2023-04-10T16:57:39.190Z,8.30
2023-04-10T17:00:10.040Z,8.43
2023-04-10T17:02:38.970Z,7.70
2023-04-10T17:05:08.249Z,7.83
2023-04-10T17:07:36.772Z,7.67
2023-04-10T17:10:05.696Z,7.73
2023-04-10T17:12:34.186Z,7.47
2023-04-10T17:15:02.610Z,6.97
2023-04-10T17:17:34.177Z,7.80
2023-04-10T17:20:02.759Z,7.13
2023-04-10T17:22:31.365Z,6.97
2023-04-10T17:24:59.803Z,6.00
2023-04-10T17:27:28.391Z,5.73
2023-04-10T17:29:57.740Z,5.63
2023-04-10T17:32:26.376Z,4.97
2023-04-10T17:34:56.117Z,4.40
2023-04-10T17:37:24.482Z,4.43
2023-04-10T17:39:54.557Z,4.40
2023-04-10T17:42:23.373Z,4.60
2023-04-10T17:44:51.750Z,5.03
2023-04-10T17:47:20.123Z,4.37
2023-04-10T17:49:48.612Z,4.40
2023-04-10T17:52:18.532Z,4.37
2023-04-10T17:54:46.914Z,4.20
2023-04-10T17:57:15.384Z,4.03
2023-04-10T17:59:43.965Z,4.57
2023-04-10T18:02:12.547Z,4.23
2023-04-10T18:04:40.975Z,3.90
2023-04-10T18:07:09.492Z,2.90
2023-04-10T18:09:39.377Z,3.33
2023-04-10T18:12:07.950Z,3.80
2023-04-10T18:14:37.082Z,3.43
2023-04-10T18:17:05.480Z,2.90
2023-04-10T18:19:34.071Z,3.10
2023-04-10T18:22:02.528Z,3.60
2023-04-10T18:24:30.834Z,2.93
2023-04-10T18:27:00.818Z,3.27
2023-04-10T18:29:30.332Z,2.77
2023-04-10T18:31:58.819Z,2.80
2023-04-10T18:34:27.250Z,2.90
2023-04-10T18:36:55.728Z,2.83
2023-04-10T18:39:24.165Z,2.80
2023-04-10T18:41:52.507Z,2.73
2023-04-10T18:44:22.327Z,2.83
2023-04-10T18:47:01.391Z,3.20
2023-04-10T18:49:32.741Z,3.30
2023-04-10T18:52:01.031Z,3.33
2023-04-10T18:54:29.458Z,3.03
2023-04-10T18:56:58.564Z,3.10
2023-04-10T18:59:28.435Z,3.47
2023-04-10T19:01:57.092Z,3.53
2023-04-10T19:04:25.911Z,3.40
2023-04-10T19:06:54.662Z,3.33
2023-04-10T19:09:23.183Z,3.90
2023-04-10T19:11:52.008Z,3.63
2023-04-10T19:14:20.401Z,4.67
2023-04-10T19:16:50.276Z,3.97
2023-04-10T19:19:18.623Z,3.37
2023-04-10T19:21:47.049Z,3.93
2023-04-10T19:24:15.464Z,3.40
2023-04-10T19:26:44.057Z,4.20
2023-04-10T19:29:13.681Z,3.87
2023-04-10T19:31:42.229Z,3.57
2023-04-10T19:34:12.530Z,3.77
2023-04-10T19:36:41.852Z,3.97
2023-04-10T19:39:10.450Z,3.27
2023-04-10T19:41:42.070Z,4.60
2023-04-10T19:44:10.859Z,3.63
2023-04-10T19:46:39.475Z,3.47
2023-04-10T19:49:08.202Z,4.30
2023-04-10T19:51:38.337Z,3.83
2023-04-10T19:54:06.836Z,3.40
2023-04-10T19:56:37.810Z,3.70
2023-04-10T19:59:06.451Z,3.80
2023-04-10T20:01:35.549Z,4.00
2023-04-10T20:04:04.309Z,3.93
2023-04-10T20:06:33.189Z,3.93
2023-04-10T20:09:03.232Z,3.90
2023-04-10T20:11:31.683Z,3.50
2023-04-10T20:14:00.210Z,4.00
2023-04-10T20:16:28.868Z,4.50
2023-04-10T20:18:57.500Z,4.63
2023-04-10T20:21:27.576Z,4.37
2023-04-10T20:23:57.456Z,3.83
2023-04-10T20:26:27.309Z,3.67
2023-04-10T20:28:55.921Z,4.27
2023-04-10T20:31:24.647Z,5.13
2023-04-10T20:33:54.289Z,4.30
2023-04-10T20:36:22.843Z,3.90
2023-04-10T20:38:51.383Z,4.60
2023-04-10T20:41:19.940Z,4.00
2023-04-10T20:43:49.724Z,5.20
2023-04-10T20:46:18.168Z,4.80
2023-04-10T20:48:46.830Z,4.43
2023-04-10T20:51:15.283Z,4.40
2023-04-10T20:53:43.679Z,4.10
2023-04-10T20:56:12.113Z,4.93
2023-04-10T20:58:40.763Z,4.77
2023-04-10T21:01:11.518Z,4.87
2023-04-10T21:03:40.102Z,5.33
2023-04-10T21:06:10.384Z,4.57
2023-04-10T21:08:39.012Z,5.33
2023-04-10T21:11:07.532Z,5.00
2023-04-10T21:13:38.269Z,5.73
2023-04-10T21:16:07.459Z,4.10
2023-04-10T21:18:40.669Z,4.40
2023-04-10T21:21:09.748Z,5.83
2023-04-10T21:23:38.092Z,4.70
2023-04-10T21:26:07.529Z,4.40
2023-04-10T21:28:35.961Z,3.80
2023-04-10T21:31:04.511Z,3.67
2023-04-10T21:33:32.965Z,3.20
2023-04-10T21:36:02.826Z,3.10
2023-04-10T21:38:31.268Z,3.50
2023-04-10T21:40:59.605Z,3.50
2023-04-10T21:43:28.033Z,2.23
2023-04-10T21:45:56.863Z,2.77
2023-04-10T21:48:25.438Z,3.27
2023-04-10T21:50:53.831Z,2.63
2023-04-10T21:53:23.616Z,2.10
2023-04-10T21:55:52.318Z,2.70
2023-04-10T21:58:20.679Z,3.00
2023-04-10T22:00:50.112Z,2.67
2023-04-10T22:03:20.673Z,2.80
2023-04-10T22:05:50.556Z,3.37
2023-04-10T22:08:20.328Z,2.77
2023-04-10T22:10:51.003Z,4.10
2023-04-10T22:13:29.504Z,3.50
2023-04-10T22:15:59.619Z,3.87
2023-04-10T22:18:27.954Z,5.33
2023-04-10T22:20:56.579Z,3.80
2023-04-10T22:23:24.984Z,3.63
2023-04-10T22:25:55.019Z,5.20
2023-04-10T22:28:29.735Z,4.77
2023-04-10T22:30:58.403Z,4.07
2023-04-10T22:33:26.910Z,4.43
2023-04-10T22:35:55.347Z,3.80
2023-04-10T22:38:24.358Z,3.00
2023-04-10T22:40:57.606Z,2.63
2023-04-10T22:43:26.858Z,2.57
2023-04-10T22:45:58.646Z,2.53
2023-04-10T22:48:27.672Z,2.30
2023-04-10T22:50:57.134Z,2.37
2023-04-10T22:53:26.789Z,3.67
2023-04-10T22:55:55.404Z,2.40
2023-04-10T22:58:25.718Z,3.23
2023-04-10T23:00:54.048Z,3.47
2023-04-10T23:03:22.641Z,3.63
2023-04-10T23:05:51.140Z,4.07
2023-04-10T23:08:19.550Z,4.87
2023-04-10T23:10:48.020Z,4.87
2023-04-10T23:13:16.478Z,5.07
2023-04-10T23:15:51.280Z,4.63
2023-04-10T23:18:19.813Z,4.03
2023-04-10T23:20:48.278Z,4.80
2023-04-10T23:23:16.864Z,4.60
2023-04-10T23:25:45.418Z,4.87
2023-04-10T23:28:13.743Z,4.73
2023-04-10T23:30:42.623Z,4.80
2023-04-10T23:33:12.439Z,4.57
2023-04-10T23:35:41.143Z,5.17
2023-04-10T23:38:09.576Z,5.00
2023-04-10T23:40:38.085Z,4.60
2023-04-10T23:43:06.759Z,4.43
2023-04-10T23:45:35.053Z,4.93
2023-04-10T23:48:03.414Z,4.17
2023-04-10T23:50:33.157Z,4.20
2023-04-10T23:53:01.872Z,4.13
2023-04-10T23:55:30.317Z,3.97
2023-04-10T23:57:58.675Z,4.47
